Shavano Park, Texas
Current Conditions -  °F | °C
As of 1:51 AM on Monday 26 Jan 2015 (Local Time) from KSAT Reporting Station
Clear Clear  
Wind Chill:   Ceiling: Unl
Heat Index:   Visibility: 10mi
Dew Point:   Wind: 5mph
Humidity: 71%   Direction: 310°NW
Pressure: 30.23"   Gusts: NA
Location:  29.5766°N, 98.5421°W
Report Text: KSAT 260751Z 31004KT 10SM CLR 06/01 A3023 RMK AO2 SLP224 T00610011
Loading
Personal Weather Stations






























Interactive Weather Map New forecast layout! Learn more

10-Day Weather Forecast

Advertisements
Track Severe Weather on mobile